메인 페이지
METAR-TAF:

METAR-TAF

공항 :

반다라나이케 국제공항

콜롬보, 스리랑카

위도: 07-10N, 경도: 079-53E, 고도: 8m

현재 날씨관측

예보는 1 시간 15분 전, 18:10시(UTC)에 발표되었습니다.
서남서7kt남남서풍과 풍을 오가는
온도 27°C
습도 79%
기압 1009 hPa
시정 10km 이상
고도 1700ft 상공 구름 보통

METAR: VCBI 201810Z 24007KT 210V280 9999 SCT017 27/23 Q1009 NOSIG

시각: 00:55 (19:25 UTC)

예보

예보는 3 시간 45분 전, 15:40시(UTC)에 발표되었습니다.
예보 대상 시간: 20일 18시부터 21일 24시까지 (UTC)
서남서12kt, 순간 최대 풍속 22kt
시정 10km 이상
고도 1800ft 상공 구름 조금
일시적
20일 18시부터 21일 04시까지 (UTC)
서남서15kt, 순간 최대 풍속 25kt
시정: 6000m
고도 1000ft 상공 구름 조금
고도 1200ft 상공 구름 보통
고도 8000ft 상공 구름 많음
고도 2000ft 상공 구름 조금, 적란운.
소나기
확률 40% :
일시적
21일 10시부터 21일 18시까지 (UTC)
시정: 7000m
고도 1200ft 상공 구름 보통
고도 1600ft 상공 구름 많음
약한소나기

TAF: VCBI 201540Z 2018/2124 24012G22KT 9999 FEW018 TX30/2107Z TN25/2100Z TEMPO 2018/2104 6000 24015G25KT SHRA FEW010 SCT012 BKN080 FEW020CB PROB40 TEMPO 2110/2118 7000 -SHRA SCT012 BKN016

4,000개 이상의 공항 관측 자료 및 예보 (METAR 및 TAF 보고).

지도상에서 검색 가능한 기상관측소가 노란 점과 빨간 점으로 표시되어 있습니다.

기상관측소 명을 보려면 표시 위로 마우스를 이동하세요.

날씨 관측과 예보를 보려면 클릭하세요.

지도 변경 : 확대하려면 엑스 표시가 있는 녹색 버튼, 축소하려면 빼기 표시가 있는 녹색 버튼, 다음 페이지의 지도를 보려면 녹색 화살표를 클릭하세요.


METAR-TAF: